Tiempo atmosférico en la estación meteorológica de Llorac, Tarragona (660 m.)



Fecha
DESCASC
Temp. máxima en grados centígrados (hora)
DESCASC
Temp. mínima en grados centígrados (hora)
DESCASC
Temp. media en grados centígrados
DESCASC
Racha de viento máxima en m/sg (hora)
DESCASC
Velocidad máxima media en intervalos de 10 minutos(hora)
DESCASC
Precipitaciones diarias en mm
DESCASC
Precipitaciones de 00:00 a 06:00 en mm
DESCASC
Precipitaciones de 06:00 a 12:00 en mm
DESCASC
Precipitaciones de 12:00 a 18:00 en mm
DESCASC
Precipitaciones de 18:00 a 24:00 en mm
DESCASC
25-01-2020 10 (15:20) 1.5 (07:20) 5.8 4.72 (11:20) 3.06 (07:50) 0 0 0 0 0
24-01-2020 11.5 (15:40) -1.2 (08:10) 5.1 4.72 (13:40) 3.61 (14:30) 0.2 0 0.2 0 0
23-01-2020 8.6 (15:50) 1 (23:40) 4.8 9.17 (04:20) 5 (04:10) 32 28.8 3.2 0 0
22-01-2020 9.8 (20:10) 3.9 (00:00) 6.9 13.33 (17:20) 7.5 (20:10) 15.4 3.8 0 6.8 4.8
21-01-2020 7.3 (21:10) 2.4 (00:00) 4.9 16.67 (18:40) 10.28 (18:40) 77.4 8 24 14.2 31.2
20-01-2020 5.9 (14:10) 3 (00:00) 4.5 15 (22:30) 8.33 (16:30) 0 0 0 0 0
19-01-2020 9.1 (15:20) 3.3 (00:00) 6.2 7.5 (21:30) 3.61 (02:40) 0.8 0.2 0.6 0 0
18-01-2020 10.8 (15:50) -3.4 (-00:0) 3.7 6.11 (13:00) 4.44 (12:40) 0.4 0 0 0 0.4
17-01-2020 10.4 (16:30) -1.9 (-00:0) 4.2 16.39 (14:50) 10.56 (16:30) 0 0 0 0 0
16-01-2020 12.8 (14:10) -3.1 (-00:0) 4.9 6.11 (16:00) 4.72 (15:40) 0 0 0 0 0
15-01-2020 9.1 (15:30) -5.9 (-00:0) 1.6 8.06 (14:00) 6.11 (12:20) 0 0 0 0 0
14-01-2020 8.9 (16:10) -5.2 (-00:0) 1.8 8.06 (11:30) 6.67 (12:10) 0.2 0 0.2 0 0
13-01-2020 8.5 (13:40) -6.8 (-00:0) 0.8 5.56 (14:10) 4.17 (14:00) 0 0 0 0 0
12-01-2020 7.9 (15:20) -5.2 (06:30) 1.4 5.56 (15:40) 4.17 (13:40) 0 0 0 0 0
11-01-2020 5.5 (15:30) -4.1 (-00:0) 0.7 10 (12:20) 7.78 (12:20) 0.2 0.2 0 0 0
10-01-2020 4.8 (00:30) 1.9 (00:00) 3.4 7.5 (16:10) 5.28 (16:10) 0.6 0.2 0.4 0 0
09-01-2020 12 (14:10) -2.7 (-00:0) 4.6 5.83 (11:50) 3.33 (12:00) 0.2 0 0.2 0 0
08-01-2020 13.5 (14:50) -3.7 (-00:0) 4.9 6.67 (11:20) 4.17 (11:20) 0.2 0 0.2 0 0
07-01-2020 1.5 (15:20) -2.9 (-00:0) -0.7 5.56 (01:30) 4.17 (01:30) 0 0 0 0 0
06-01-2020 11.4 (14:10) -1.9 (-00:0) 4.7 5 (02:00) 3.61 (00:20) 0.2 0.2 0 0 0
05-01-2020 3.4 (15:30) -1.3 (-00:0) 1.1 8.33 (03:40) 5.56 (03:40) 0.2 0 0.2 0 0
04-01-2020 2.4 (21:40) -2 (-00:0) 0.2 7.5 (23:59) 5.28 (15:10) 0 0 0 0 0
03-01-2020 1.7 (00:00) -1.4 (-00:0) 0.2 6.39 (12:30) 5 (12:30) 0.2 0.2 0 0 0
02-01-2020 5.2 (14:30) -1.8 (-00:0) 1.7 4.44 (14:20) 3.33 (14:20) 0.2 0 0.2 0 0
01-01-2020 2 (13:40) -0.6 (-00:0) 0.7 6.11 (02:40) 4.17 (00:10) 0 0 0 0 0
31-12-2019 4.5 (13:10) 0.9 (00:00) 2.7 5 (21:00) 3.61 (21:00) 0.2 0 0 0 0.2
30-12-2019 5.7 (12:20) -0.4 (00:00) 2.6 5 (14:10) 3.61 (14:10) 0.2 0 0 0 0.2
29-12-2019 8.9 (12:30) -1.6 (-00:0) 3.6 5.56 (13:30) 4.17 (13:30) 0 0 0 0 0
28-12-2019 12.4 (14:50) -3.7 (-00:0) 4.3 3.89 (22:40) 3.33 (22:50) 0.2 0 0.2 0 0

Gráficas

Temp. máximas Temp. mínimas Temp. medias Precipitaciones Rachas de viento máximas Velocidades máximas media en intervalos de 10 minutos

Datos horarios

Fecha y hora oficial Temperatura (ºC) Velocidad del viento (km/h) Dirección del viento Racha (km/h) Dirección de racha Precipitación (mm) Presión (hPa) Tendencia (hPa) Humedad (%)
2020-01-26 23:00:00 3 3 Sudeste 4 Sudeste 0 -- -- 100
2020-01-26 22:00:00 3.5 3 Sudeste 6 Sudeste 0 -- -- 100
2020-01-26 21:00:00 2.5 4 Sudeste 6 Sudeste 0 -- -- 100
2020-01-26 20:00:00 3.3 3 Sudeste 6 Este 0 -- -- 100
2020-01-26 19:00:00 5 2 Sudeste 5 Sudeste 0 -- -- 100
2020-01-26 18:00:00 6.6 0 Calma 12 Noroeste 0 -- -- 100
2020-01-26 17:00:00 6.9 6 Noroeste 24 Noroeste 0 -- -- 100
2020-01-26 16:00:00 6.3 17 Noroeste 25 Oeste 0 -- -- 100
2020-01-26 15:00:00 6.3 19 Noroeste 31 Oeste 0 -- -- 100
2020-01-26 14:00:00 6.1 18 Noroeste 25 Noroeste 0 -- -- 100
2020-01-26 13:00:00 6 18 Noroeste 24 Oeste 0 -- -- 100
2020-01-26 12:00:00 6.3 17 Noroeste 24 Noroeste 0 -- -- 100
2020-01-26 11:00:00 6.4 18 Noroeste 23 Oeste 0 -- -- 100
2020-01-26 10:00:00 6.3 19 Noroeste 24 Noroeste 0 -- -- 100
2020-01-26 09:00:00 4.6 4 Noroeste 6 Noroeste 0 -- -- 100
2020-01-26 08:00:00 3.5 3 Sudeste 4 Sudeste 0 -- -- 100
2020-01-26 07:00:00 3.2 0 Calma 4 Sudeste 0 -- -- 100
2020-01-26 06:00:00 4 0 Calma 6 Sur 0 -- -- 100
2020-01-26 05:00:00 4.4 5 Sudeste 7 Sudeste 0 -- -- 100
2020-01-26 04:00:00 5.3 3 Sudeste 8 Este 0 -- -- 100
2020-01-26 03:00:00 5.9 7 Sudeste 14 Sudeste 0 -- -- 100
2020-01-26 02:00:00 6.4 11 Sudeste 14 Sudeste 0 -- -- 100
2020-01-26 01:00:00 6.3 9 Sudeste 15 Sudeste 0 -- -- 100
2020-01-26 00:00:00 6.3 8 Sudeste 12 Sudeste 0 -- -- 100
2020-01-25 23:00:00 6.2 7 Sudeste 12 Sudeste 0 -- -- 100
2020-01-25 22:00:00 4.6 7 Sudeste 11 Sudeste 0 -- -- 100
2020-01-25 21:00:00 3.9 6 Sudeste 9 Sudeste 0 -- -- 100
2020-01-25 20:00:00 3.7 5 Sudeste 8 Sudeste 0 -- -- 100
2020-01-25 19:00:00 4.3 6 Sudeste 8 Sudeste 0 -- -- 96
2020-01-25 18:00:00 6.8 5 Sudeste 13 Sudeste 0 -- -- 92
2020-01-25 17:00:00 8.3 9 Este 16 Este 0 -- -- 86
2020-01-25 16:00:00 9.6 8 Sudeste 13 Sudeste 0 -- -- 82
2020-01-25 15:00:00 9.7 8 Sudeste 15 Sudeste 0 -- -- 83
2020-01-25 14:00:00 8.7 5 Sudeste 12 Sudeste 0 -- -- 89
2020-01-25 13:00:00 8.1 8 Sudeste 12 Sudeste 0 -- -- 92
2020-01-25 12:00:00 7.6 8 Sudeste 17 Sudeste 0 -- -- 92
2020-01-25 11:00:00 7 8 Sudeste 13 Sur 0 -- -- 98
2020-01-25 10:00:00 5.4 6 Sudeste 10 Sudeste 0 -- -- 100
2020-01-25 09:00:00 2.9 4 Este 12 Sudeste 0 -- -- 100
2020-01-25 08:00:00 2.6 10 Sudeste 12 Sudeste 0 -- -- 100
2020-01-25 07:00:00 1.8 7 Sudeste 9 Sudeste 0 -- -- 100
2020-01-25 06:00:00 3.3 6 Sudeste 12 Sudeste 0 -- -- 100
2020-01-25 05:00:00 3.5 5 Sudeste 8 Sudeste 0 -- -- 100
2020-01-25 04:00:00 3.5 4 Sudeste 8 Sudeste 0 -- -- 100
2020-01-25 03:00:00 3.4 6 Sudeste 8 Sudeste 0 -- -- 100
2020-01-25 02:00:00 3.7 7 Sudeste 9 Sudeste 0 -- -- 100
2020-01-25 01:00:00 3.3 6 Sudeste 9 Sudeste 0 -- -- 100
2020-01-25 00:00:00 2.9 5 Sudeste 7 Sudeste 0 -- -- 100
2020-01-24 23:00:00 2.2 5 Sudeste 9 Sudeste 0 -- -- 100
2020-01-24 22:00:00 1.3 9 Sudeste 11 Sudeste 0 -- -- 100
2020-01-24 21:00:00 0.6 6 Sudeste 9 Sudeste 0 -- -- 100
2020-01-24 20:00:00 1.8 4 Sudeste 6 Sudeste 0 -- -- 98
2020-01-24 19:00:00 3.6 4 Sudeste 5 Sudeste 0 -- -- 94
2020-01-24 18:00:00 6.3 2 Sudeste 5 Noroeste 0 -- -- 90
2020-01-24 17:00:00 9.2 5 Noroeste 13 Oeste 0 -- -- 76
2020-01-24 16:00:00 11.1 10 Oeste 14 Oeste 0 -- -- 67
2020-01-24 15:00:00 11.2 11 Noroeste 16 Noroeste 0 -- -- 63
2020-01-24 14:00:00 11.1 12 Oeste 17 Noroeste 0 -- -- 69
2020-01-24 13:00:00 10.6 11 Noroeste 13 Oeste 0 -- -- 74
2020-01-24 12:00:00 9.5 6 Oeste 8 Oeste 0 -- -- 81
2020-01-24 11:00:00 6.3 4 Sudeste 6 Sudeste 0 -- -- 100
2020-01-24 10:00:00 1.7 5 Sudeste 6 Sudeste 0.2 -- -- 100
2020-01-24 09:00:00 -0.7 4 Sudeste 9 Sudeste 0 -- -- 100
2020-01-24 08:00:00 -1 3 Sudeste 8 Sudeste 0 -- -- 100
2020-01-24 07:00:00 -0.7 4 Sudeste 6 Sudeste 0 -- -- 100
2020-01-24 06:00:00 -0.3 4 Sudeste 13 Sudeste 0 -- -- 100
2020-01-24 05:00:00 -0.5 5 Sudeste 8 Sudeste 0 -- -- 100
2020-01-24 04:00:00 -0.3 7 Sudeste 10 Sudeste 0 -- -- 100
2020-01-24 03:00:00 0.2 6 Sudeste 10 Sudeste 0 -- -- 100
2020-01-24 02:00:00 0.5 5 Sudeste 7 Sudeste 0 -- -- 100
2020-01-24 01:00:00 0.8 5 Sudeste 10 Sudeste 0 -- -- 100
2020-01-24 00:00:00 1.1 5 Sudeste 11 Sudeste 0 -- -- 100
2020-01-23 23:00:00 1.4 7 Sudeste 10 Sudeste 0 -- -- 100
2020-01-23 22:00:00 2.8 5 Sudeste 8 Sudeste 0 -- -- 100
2020-01-23 21:00:00 2.4 5 Norte 9 Sudeste 0 -- -- 100
2020-01-23 20:00:00 1.7 6 Sudeste 9 Sudeste 0 -- -- 100
2020-01-23 19:00:00 3.5 2 Este 4 Este 0 -- -- 98
2020-01-23 18:00:00 5.9 0 Calma 9 Nordeste 0 -- -- 96
2020-01-23 17:00:00 7.2 5 Norte 13 Norte 0 -- -- 94
2020-01-23 16:00:00 8.5 6 Noroeste 8 Noroeste 0 -- -- 88
2020-01-23 15:00:00 8 5 Noroeste 9 Noroeste 0 -- -- 91
2020-01-23 14:00:00 7.3 4 Oeste 8 Oeste 0 -- -- 92
2020-01-23 13:00:00 6.5 5 Sudeste 10 Noroeste 0 -- -- 96
2020-01-23 12:00:00 5.6 4 Noroeste 14 Noroeste 0 -- -- 100
2020-01-23 11:00:00 4.5 8 Noroeste 12 Noroeste 1 -- -- 100
2020-01-23 10:00:00 4.1 5 Noroeste 10 Noroeste 1.6 -- -- 100
2020-01-23 09:00:00 3.7 3 Este 8 Sudeste 0.2 -- -- 100
2020-01-23 08:00:00 3.5 4 Este 5 Sudeste 0 -- -- 100
2020-01-23 07:00:00 3.7 2 Este 9 Norte 0.4 -- -- 100
2020-01-23 06:00:00 3.5 4 Noroeste 16 Noroeste 1 -- -- 100
2020-01-23 05:00:00 2.7 12 Noroeste 33 Noroeste 11.2 -- -- 100
2020-01-23 04:00:00 4.2 12 Noroeste 24 Oeste 7 -- -- 100
2020-01-23 03:00:00 4.2 15 Noroeste 23 Noroeste 7 -- -- 100
2020-01-23 02:00:00 4.5 14 Noroeste 22 Oeste 1 -- -- 99
2020-01-23 01:00:00 4.6 13 Noroeste 22 Noroeste 1.6 -- -- 100
2020-01-23 00:00:00 4.6 17 Noroeste 26 Oeste 0.4 -- -- 100
2020-01-22 23:00:00 5.2 12 Noroeste 33 Noroeste 2 -- -- 99
2020-01-22 22:00:00 9.7 19 Sudeste 44 Sudeste 0.2 -- -- 94
2020-01-22 21:00:00 9.8 23 Sudeste 46 Sudeste 0 -- -- 95
2020-01-22 20:00:00 9.7 26 Sudeste 47 Sudeste 1.2 -- -- 96
2020-01-22 19:00:00 9.6 21 Sudeste 40 Sudeste 1 -- -- 97
2020-01-22 18:00:00 9.6 22 Sudeste 48 Sudeste 0.4 -- -- 94
2020-01-22 17:00:00 9.7 24 Sudeste 40 Sudeste 0.8 -- -- 95
2020-01-22 16:00:00 7.7 2 Oeste 7 Sudeste 2.6 -- -- 100
2020-01-22 15:00:00 7.8 3 Oeste 13 Este 2.4 -- -- 98
2020-01-22 14:00:00 8.5 7 Este 16 Sudeste 0.2 -- -- 97
2020-01-22 13:00:00 7.7 9 Este 22 Sudeste 0.4 -- -- 96
2020-01-22 12:00:00 7.8 16 Sudeste 26 Este 0 -- -- 91
2020-01-22 11:00:00 7.4 13 Sudeste 21 Sudeste 0 -- -- 91
2020-01-22 10:00:00 6.1 13 Sudeste 19 Sudeste 0 -- -- 93
2020-01-22 09:00:00 4.8 7 Sudeste 19 Este 0 -- -- 97
2020-01-22 08:00:00 3.9 0 Calma 14 Este 0 -- -- 95
2020-01-22 07:00:00 4.7 9 Sudeste 25 Sudeste 0 -- -- 96
2020-01-22 06:00:00 5.3 12 Sudeste 28 Este 0 -- -- 95
2020-01-22 05:00:00 5.5 9 Este 18 Este 0 -- -- 97
2020-01-22 04:00:00 5.1 5 Sudeste 14 Sudeste 0 -- -- 98
2020-01-22 03:00:00 5.6 3 Noroeste 16 Este 0.4 -- -- 95
2020-01-22 02:00:00 5.7 10 Este 26 Este 1 -- -- 95
2020-01-22 01:00:00 5.3 12 Este 29 Este 2.4 -- -- 94
2020-01-22 00:00:00 5.3 9 Este 50 Sudeste 5.2 -- -- 97
2020-01-21 23:00:00 6.9 19 Sudeste 44 Este 10.6 -- -- 97
2020-01-21 22:00:00 7.2 21 Sudeste 54 Este 7.8 -- -- 96
2020-01-21 21:00:00 7.1 28 Sudeste 58 Este 3.6 -- -- 97
2020-01-21 20:00:00 6.9 30 Sudeste 57 Este 3.2 -- -- 99
2020-01-21 19:00:00 6.9 29 Sudeste 60 Este 0.8 -- -- 98
2020-01-21 18:00:00 6.5 32 Sudeste 58 Sudeste 1.8 -- -- 100
2020-01-21 17:00:00 6.7 26 Sudeste 55 Sudeste 1.6 -- -- 97
2020-01-21 16:00:00 6.4 31 Sudeste 58 Este 2.2 -- -- 96
2020-01-21 15:00:00 6.8 33 Sudeste 56 Este 2 -- -- 97
2020-01-21 14:00:00 6.6 32 Sudeste 57 Sudeste 3.4 -- -- 97
2020-01-21 13:00:00 6 34 Sudeste 56 Este 3.2 -- -- 96
2020-01-21 12:00:00 5.5 28 Sudeste 49 Sudeste 5.8 -- -- 97
2020-01-21 11:00:00 4.5 22 Sudeste 45 Este 5 -- -- 97
2020-01-21 10:00:00 4.2 23 Sudeste 50 Sudeste 5 -- -- 96
2020-01-21 09:00:00 3.9 27 Sudeste 54 Este 2.8 -- -- 95
2020-01-21 08:00:00 3.4 28 Sudeste 49 Sudeste 3.8 -- -- 97
2020-01-21 07:00:00 3.2 20 Este 45 Este 1.6 -- -- 94
2020-01-21 06:00:00 3 19 Este 53 Sudeste 1.6 -- -- 93
2020-01-21 05:00:00 2.8 21 Sudeste 52 Este 1.4 -- -- 93
2020-01-21 04:00:00 2.4 20 Este 50 Este 2.2 -- -- 93
2020-01-21 03:00:00 2.8 27 Sudeste 49 Sudeste 1.4 -- -- 92
2020-01-21 02:00:00 3.3 22 Este 54 Este 1.4 -- -- 87
2020-01-21 01:00:00 4.5 19 Este 46 Este 0 -- -- 77
2020-01-21 00:00:00 4.3 26 Sudeste 50 Sudeste 0 -- -- 79
2020-01-20 23:00:00 3.9 24 Sudeste 54 Este 0 -- -- 79
2020-01-20 22:00:00 3.8 23 Este 53 Este 0 -- -- 81
2020-01-20 21:00:00 3.8 26 Sudeste 52 Sudeste 0 -- -- 80
2020-01-20 20:00:00 4.2 18 Este 45 Sudeste 0 -- -- 74
2020-01-20 19:00:00 4.4 24 Sudeste 53 Este 0 -- -- 73
2020-01-20 18:00:00 4.3 20 Este 53 Este 0 -- -- 72
2020-01-20 17:00:00 4.9 22 Este 53 Sudeste 0 -- -- 67
2020-01-20 16:00:00 5.3 19 Este 50 Este 0 -- -- 65
2020-01-20 15:00:00 5.5 24 Este 50 Este 0 -- -- 63
2020-01-20 14:00:00 5.8 21 Este 50 Este 0 -- -- 63
2020-01-20 13:00:00 5.7 17 Este 47 Este 0 -- -- 63
2020-01-20 12:00:00 5.2 19 Este 53 Este 0 -- -- 65
2020-01-20 11:00:00 4.6 17 Este 49 Este 0 -- -- 67
2020-01-20 10:00:00 4.4 20 Este 50 Este 0 -- -- 66
2020-01-20 09:00:00 4.3 14 Este 38 Este 0 -- -- 66
2020-01-20 08:00:00 4.5 14 Este 43 Este 0 -- -- 64
2020-01-20 07:00:00 5 7 Este 36 Este 0 -- -- 55
2020-01-20 06:00:00 5.3 8 Nordeste 23 Este 0 -- -- 43
2020-01-20 05:00:00 5.1 6 Este 19 Este 0 -- -- 36
2020-01-20 04:00:00 5 8 Este 28 Este 0 -- -- 32
2020-01-20 03:00:00 5.1 7 Este 26 Nordeste 0 -- -- 32
2020-01-20 02:00:00 4.5 6 Norte 16 Este 0 -- -- 33
2020-01-20 01:00:00 3 6 Noroeste 12 Noroeste 0 -- -- 42
2020-01-20 00:00:00 3.3 6 Noroeste 11 Norte 0 -- -- 39
2020-01-19 23:00:00 4.4 8 Noroeste 21 Este 0 -- -- 36
2020-01-19 22:00:00 5.2 10 Este 27 Este 0 -- -- 31
2020-01-19 21:00:00 3.9 2 Norte 14 Este 0 -- -- 34
2020-01-19 20:00:00 4.5 6 Este 18 Este 0 -- -- 31
2020-01-19 19:00:00 5.2 8 Este 22 Este 0 -- -- 30
2020-01-19 18:00:00 6.1 5 Este 17 Sudeste 0 -- -- 33
2020-01-19 17:00:00 7.8 7 Este 16 Nordeste 0 -- -- 44
2020-01-19 16:00:00 7.9 5 Norte 16 Este 0 -- -- 57
2020-01-19 15:00:00 8.8 9 Nordeste 24 Este 0 -- -- 44
2020-01-19 14:00:00 7.8 10 Sudeste 26 Sudeste 0 -- -- 51
2020-01-19 13:00:00 8.5 9 Este 19 Este 0 -- -- 57
2020-01-19 12:00:00 7 12 Este 24 Nordeste 0 -- -- 65
2020-01-19 11:00:00 5.7 8 Este 18 Nordeste 0 -- -- 80
2020-01-19 10:00:00 5.1 8 Este 18 Este 0.2 -- -- 91
2020-01-19 09:00:00 4.9 7 Este 13 Nordeste 0.4 -- -- 97
2020-01-19 08:00:00 4.9 4 Noroeste 9 Noroeste 0 -- -- 98
2020-01-19 07:00:00 5.2 6 Noroeste 15 Este 0 -- -- 98
2020-01-19 06:00:00 5.2 10 Este 19 Este 0 -- -- 98
2020-01-19 05:00:00 5.6 8 Sudeste 15 Este 0 -- -- 100
2020-01-19 04:00:00 5.8 8 Sudeste 23 Este 0 -- -- 100
2020-01-19 03:00:00 6.1 12 Sudeste 18 Sudeste 0 -- -- 100
2020-01-19 02:00:00 6.5 9 Sudeste 13 Sudeste 0.2 -- -- 100
2020-01-19 01:00:00 6.8 9 Sudeste 18 Sudeste 0 -- -- 100
2020-01-19 00:00:00 6.4 5 Sudeste 12 Sudeste 0 -- -- 100
2020-01-18 23:00:00 6.4 5 Sudeste 10 Sudeste 0.2 -- -- 100
2020-01-18 22:00:00 6.3 6 Sudeste 11 Sudeste 0.2 -- -- 98
2020-01-18 21:00:00 6.7 8 Sur 20 Sur 0 -- -- 95
2020-01-18 20:00:00 6.8 5 Sur 17 Sudeste 0 -- -- 92
2020-01-18 19:00:00 6.8 10 Sur 21 Sur 0 -- -- 90
2020-01-18 18:00:00 6.9 9 Sudeste 18 Sur 0 -- -- 83
2020-01-18 17:00:00 9.1 9 Sur 16 Sur 0 -- -- 68
2020-01-18 16:00:00 10.8 5 Oeste 15 Oeste 0 -- -- 58
2020-01-18 15:00:00 10.4 12 Noroeste 17 Oeste 0 -- -- 58
2020-01-18 14:00:00 10 12 Oeste 19 Oeste 0 -- -- 61
2020-01-18 13:00:00 9.3 14 Noroeste 22 Oeste 0 -- -- 59
2020-01-18 12:00:00 8.2 5 Noroeste 16 Oeste 0 -- -- 60
2020-01-18 11:00:00 5.4 12 Noroeste 16 Oeste 0 -- -- 72
2020-01-18 10:00:00 2.4 5 Noroeste 11 Noroeste 0 -- -- 89
2020-01-18 09:00:00 0.3 5 Sudeste 8 Sudeste 0 -- -- 94
2020-01-18 08:00:00 0.7 0 Calma 7 Norte 0 -- -- 91
2020-01-18 07:00:00 1.7 5 Noroeste 17 Noroeste 0 -- -- 85
2020-01-18 06:00:00 1.1 9 Noroeste 13 Noroeste 0 -- -- 89
2020-01-18 05:00:00 0.9 8 Noroeste 13 Noroeste 0 -- -- 91
2020-01-18 04:00:00 -3.3 0 Calma 5 Noroeste 0 -- -- 97
2020-01-18 03:00:00 -2.8 3 Este 9 Sudeste 0 -- -- 96
2020-01-18 02:00:00 -2 5 Sudeste 10 Sudeste 0 -- -- 93
2020-01-18 01:00:00 -1.3 3 Sudeste 8 Sudeste 0 -- -- 93
2020-01-18 00:00:00 1.5 0 Calma 23 Noroeste 0 -- -- 84
2020-01-17 23:00:00 3.7 15 Noroeste 34 Noroeste 0 -- -- 78
2020-01-17 22:00:00 4.9 25 Noroeste 40 Noroeste 0 -- -- 73
2020-01-17 21:00:00 6.2 22 Noroeste 33 Noroeste 0 -- -- 69
2020-01-17 20:00:00 6.6 21 Noroeste 41 Norte 0 -- -- 69
2020-01-17 19:00:00 7.4 23 Noroeste 42 Noroeste 0 -- -- 66
2020-01-17 18:00:00 8.3 26 Noroeste 46 Noroeste 0 -- -- 65
2020-01-17 17:00:00 9.6 32 Noroeste 55 Noroeste 0 -- -- 65
2020-01-17 16:00:00 10.3 32 Noroeste 53 Noroeste 0 -- -- 75
2020-01-17 15:00:00 10 35 Noroeste 59 Noroeste 0 -- -- 74
2020-01-17 14:00:00 9.2 33 Noroeste 49 Noroeste 0 -- -- 75
2020-01-17 13:00:00 9.1 31 Noroeste 46 Oeste 0 -- -- 72
2020-01-17 12:00:00 9.1 23 Noroeste 36 Oeste 0 -- -- 73
2020-01-17 11:00:00 8.6 21 Noroeste 30 Oeste 0 -- -- 79
2020-01-17 10:00:00 5.2 18 Noroeste 24 Noroeste 0 -- -- 100
2020-01-17 09:00:00 -0.7 6 Sudeste 6 Sudeste 0 -- -- 100
2020-01-17 08:00:00 0.2 3 Sudeste 9 Noroeste 0 -- -- 100
2020-01-17 07:00:00 0.3 3 Noroeste 9 Noroeste 0 -- -- 100
2020-01-17 06:00:00 -1.2 7 Sudeste 9 Sudeste 0 -- -- 100
2020-01-17 05:00:00 -1.5 6 Sudeste 9 Sudeste 0 -- -- 100
2020-01-17 04:00:00 -1.2 5 Sudeste 8 Sudeste 0 -- -- 100
2020-01-17 03:00:00 -0.8 5 Sudeste 8 Sudeste 0 -- -- 100
2020-01-17 02:00:00 0 4 Sudeste 10 Sudeste 0 -- -- 100
2020-01-17 01:00:00 0.4 7 Sudeste 9 Sudeste 0 -- -- 99
2020-01-17 00:00:00 1.2 8 Sudeste 10 Sudeste 0 -- -- 99
2020-01-16 23:00:00 1.9 8 Sudeste 12 Sudeste 0 -- -- 99
2020-01-16 22:00:00 2.6 9 Sudeste 12 Sudeste 0 -- -- 99
2020-01-16 21:00:00 2.7 5 Sudeste 13 Sudeste 0 -- -- 98
2020-01-16 20:00:00 2.8 13 Sudeste 16 Sudeste 0 -- -- 96
2020-01-16 19:00:00 3.9 8 Sudeste 10 Sudeste 0 -- -- 90
2020-01-16 18:00:00 7 0 Calma 6 Oeste 0 -- -- 81
2020-01-16 17:00:00 10.7 4 Oeste 21 Noroeste 0 -- -- 69
2020-01-16 16:00:00 12.5 16 Noroeste 22 Noroeste 0 -- -- 63
2020-01-16 15:00:00 12.6 15 Noroeste 19 Noroeste 0 -- -- 64
2020-01-16 14:00:00 12.6 14 Noroeste 20 Noroeste 0 -- -- 63
2020-01-16 13:00:00 12.4 14 Noroeste 19 Noroeste 0 -- -- 66
2020-01-16 12:00:00 11.7 12 Noroeste 17 Noroeste 0 -- -- 69
2020-01-16 11:00:00 8.6 3 Noroeste 6 Sudeste 0 -- -- 85
2020-01-16 10:00:00 2.1 4 Sudeste 9 Sudeste 0 -- -- 100
2020-01-16 09:00:00 -1.9 4 Sudeste 10 Sudeste 0 -- -- 100
2020-01-16 08:00:00 -3 8 Sudeste 10 Sudeste 0 -- -- 100
2020-01-16 07:00:00 -2.7 4 Sudeste 8 Sudeste 0 -- -- 100
2020-01-16 06:00:00 -2.9 5 Sudeste 8 Sudeste 0 -- -- 100
2020-01-16 05:00:00 -2.6 0 Calma 5 Sudeste 0 -- -- 100
2020-01-16 04:00:00 -2.2 6 Sudeste 9 Sudeste 0 -- -- 100
2020-01-16 03:00:00 -1.1 4 Sudeste 11 Sudeste 0 -- -- 100
2020-01-16 02:00:00 -1.7 6 Sudeste 10 Sudeste 0 -- -- 100
2020-01-16 01:00:00 -1.8 5 Sudeste 11 Sudeste 0 -- -- 100
2020-01-16 00:00:00 -1.7 0 Calma 10 Sudeste 0 -- -- 99
2020-01-15 23:00:00 -1.7 3 Sudeste 7 Sudeste 0 -- -- 99
2020-01-15 22:00:00 -1.6 6 Sudeste 6 Sudeste 0 -- -- 97
2020-01-15 21:00:00 -0.5 5 Sudeste 9 Sudeste 0 -- -- 96
2020-01-15 20:00:00 0.3 4 Sudeste 6 Sudeste 0 -- -- 93
2020-01-15 19:00:00 2.7 3 Norte 6 Noroeste 0 -- -- 88
2020-01-15 18:00:00 5.6 5 Noroeste 17 Oeste 0 -- -- 78
2020-01-15 17:00:00 7.6 13 Noroeste 24 Noroeste 0 -- -- 71
2020-01-15 16:00:00 9.1 16 Noroeste 25 Oeste 0 -- -- 65
2020-01-15 15:00:00 8.6 16 Noroeste 27 Noroeste 0 -- -- 64
2020-01-15 14:00:00 8.6 21 Oeste 29 Oeste 0 -- -- 62
2020-01-15 13:00:00 7.8 19 Noroeste 28 Noroeste 0 -- -- 62
2020-01-15 12:00:00 7.1 17 Noroeste 22 Noroeste 0 -- -- 65
2020-01-15 11:00:00 5.1 13 Noroeste 18 Noroeste 0 -- -- 75
2020-01-15 10:00:00 -1 3 Sudeste 7 Sudeste 0 -- -- 100
2020-01-15 09:00:00 -4.6 4 Sudeste 7 Sudeste 0 -- -- 99
2020-01-15 08:00:00 -5.4 4 Sudeste 6 Sudeste 0 -- -- 98
2020-01-15 07:00:00 -5.4 4 Sudeste 6 Sudeste 0 -- -- 98
2020-01-15 06:00:00 -5.6 5 Sudeste 9 Sudeste 0 -- -- 97
2020-01-15 05:00:00 -5.8 6 Sudeste 9 Sudeste 0 -- -- 98
2020-01-15 04:00:00 -5 5 Sudeste 8 Sudeste 0 -- -- 98
2020-01-15 03:00:00 -4.3 5 Sudeste 8 Sudeste 0 -- -- 98
2020-01-15 02:00:00 -4.2 4 Este 9 Sudeste 0 -- -- 98
2020-01-15 01:00:00 -4 5 Sudeste 8 Sudeste 0 -- -- 99
2020-01-15 00:00:00 -3.2 5 Sudeste 7 Sudeste 0 -- -- 98
2020-01-14 23:00:00 -2.9 4 Este 9 Sudeste 0 -- -- 98
2020-01-14 22:00:00 -2.9 4 Sudeste 8 Sudeste 0 -- -- 96
2020-01-14 21:00:00 -2.7 6 Sudeste 8 Sudeste 0 -- -- 95
2020-01-14 20:00:00 -2.1 5 Sudeste 8 Sudeste 0 -- -- 93
2020-01-14 19:00:00 -0.9 5 Sudeste 9 Sudeste 0 -- -- 87
2020-01-14 18:00:00 2 4 Este 8 Sudeste 0 -- -- 79
2020-01-14 17:00:00 6.5 3 Noroeste 10 Noroeste 0 -- -- 63
2020-01-14 16:00:00 8.8 8 Oeste 22 Oeste 0 -- -- 53
2020-01-14 15:00:00 8.2 18 Noroeste 24 Oeste 0 -- -- 54
2020-01-14 14:00:00 7.8 21 Noroeste 26 Noroeste 0 -- -- 55
2020-01-14 13:00:00 7.2 20 Noroeste 29 Oeste 0 -- -- 59
2020-01-14 12:00:00 6.6 21 Noroeste 29 Noroeste 0 -- -- 62
2020-01-14 11:00:00 5.1 17 Noroeste 25 Noroeste 0.2 -- -- 68
2020-01-14 10:00:00 1.2 2 Noroeste 6 Sudeste 0 -- -- 97
2020-01-14 09:00:00 -3.7 6 Sudeste 10 Sudeste 0 -- -- 99
2020-01-14 08:00:00 -4.4 0 Calma 9 Sudeste 0 -- -- 96
2020-01-14 07:00:00 -3.7 6 Sudeste 8 Sudeste 0 -- -- 97
2020-01-14 06:00:00 -3.7 5 Sudeste 9 Sudeste 0 -- -- 97
2020-01-14 05:00:00 -3.3 3 Noroeste 10 Noroeste 0 -- -- 96
2020-01-14 04:00:00 -3.4 6 Noroeste 9 Noroeste 0 -- -- 96
2020-01-14 03:00:00 -3.5 5 Noroeste 9 Norte 0 -- -- 98
2020-01-14 02:00:00 -4.2 0 Calma 6 Sudeste 0 -- -- 98
2020-01-14 01:00:00 -4.5 4 Sudeste 5 Sudeste 0 -- -- 96
2020-01-14 00:00:00 -3.7 5 Sudeste 6 Sudeste 0 -- -- 97
2020-01-13 23:00:00 -3.5 4 Sudeste 7 Sudeste 0 -- -- 97
2020-01-13 22:00:00 -3.2 5 Sudeste 8 Sudeste 0 -- -- 96
2020-01-13 21:00:00 -2.4 2 Nordeste 8 Sudeste 0 -- -- 96
2020-01-13 20:00:00 -1.2 4 Sudeste 7 Sudeste 0 -- -- 93
2020-01-13 19:00:00 0.4 5 Sudeste 8 Noroeste 0 -- -- 89
2020-01-13 18:00:00 3.8 2 Norte 9 Noroeste 0 -- -- 81
2020-01-13 17:00:00 6.3 3 Noroeste 14 Noroeste 0 -- -- 73
2020-01-13 16:00:00 7.3 11 Noroeste 18 Noroeste 0 -- -- 68
2020-01-13 15:00:00 7.9 14 Noroeste 20 Noroeste 0 -- -- 66
2020-01-13 14:00:00 8.5 15 Noroeste 20 Oeste 0 -- -- 63
2020-01-13 13:00:00 7.3 11 Noroeste 17 Noroeste 0 -- -- 67
2020-01-13 12:00:00 6 9 Noroeste 14 Noroeste 0 -- -- 72
2020-01-13 11:00:00 3.5 8 Noroeste 13 Noroeste 0 -- -- 80
2020-01-13 10:00:00 -1.4 4 Sudeste 8 Sudeste 0 -- -- 98
2020-01-13 09:00:00 -5.8 4 Sudeste 8 Sudeste 0 -- -- 99
2020-01-13 08:00:00 -6.6 4 Sudeste 7 Sudeste 0 -- -- 98
2020-01-13 07:00:00 -6.7 7 Sudeste 8 Sudeste 0 -- -- 97
2020-01-13 06:00:00 -6.1 4 Sudeste 8 Sudeste 0 -- -- 97
2020-01-13 05:00:00 -5.7 3 Sudeste 6 Sudeste 0 -- -- 98
2020-01-13 04:00:00 -5 4 Sudeste 7 Sudeste 0 -- -- 98
2020-01-13 03:00:00 -4.8 6 Sudeste 9 Sudeste 0 -- -- 98
2020-01-13 02:00:00 -4.4 3 Noroeste 6 Sudeste 0 -- -- 97
2020-01-13 01:00:00 -4.4 0 Calma 8 Sudeste 0 -- -- 97
2020-01-13 00:00:00 -4.3 6 Sudeste 8 Sudeste 0 -- -- 96
2020-01-12 23:00:00 -4.1 4 Sudeste 5 Sudeste 0 -- -- 96
2020-01-12 22:00:00 -3.9 4 Sudeste 6 Sudeste 0 -- -- 96
2020-01-12 21:00:00 -3.2 3 Este 9 Sudeste 0 -- -- 96
2020-01-12 20:00:00 -2.7 4 Sudeste 8 Sudeste 0 -- -- 94
2020-01-12 19:00:00 -1.7 5 Sudeste 8 Sudeste 0 -- -- 91
2020-01-12 18:00:00 2.1 3 Noroeste 11 Noroeste 0 -- -- 78
2020-01-12 17:00:00 4.4 9 Oeste 17 Noroeste 0 -- -- 69
2020-01-12 16:00:00 7.3 11 Oeste 20 Noroeste 0 -- -- 66
2020-01-12 15:00:00 7.5 14 Noroeste 18 Noroeste 0 -- -- 64
2020-01-12 14:00:00 6.7 15 Noroeste 19 Noroeste 0 -- -- 70
2020-01-12 13:00:00 6.5 14 Noroeste 17 Noroeste 0 -- -- 73
2020-01-12 12:00:00 5.7 9 Noroeste 13 Noroeste 0 -- -- 83
2020-01-12 11:00:00 3.5 5 Noroeste 8 Noroeste 0 -- -- 95
2020-01-12 10:00:00 -1.3 5 Sudeste 8 Sudeste 0 -- -- 100
2020-01-12 09:00:00 -4.6 5 Sudeste 8 Sudeste 0 -- -- 100
2020-01-12 08:00:00 -4.5 5 Sudeste 7 Sudeste 0 -- -- 100
2020-01-12 07:00:00 -5 5 Sudeste 7 Sudeste 0 -- -- 99
2020-01-12 06:00:00 -5 5 Sudeste 6 Sudeste 0 -- -- 99
2020-01-12 05:00:00 -4.9 3 Este 6 Sudeste 0 -- -- 99
2020-01-12 04:00:00 -4.3 5 Sudeste 7 Sudeste 0 -- -- 99
2020-01-12 03:00:00 -4.1 3 Sudeste 6 Sudeste 0 -- -- 100
2020-01-12 02:00:00 -4.2 3 Sudeste 8 Sudeste 0 -- -- 100
2020-01-12 01:00:00 -4.5 3 Sudeste 6 Sudeste 0 -- -- 98
2020-01-12 00:00:00 -4.1 5 Sudeste 6 Sudeste 0 -- -- 98
2020-01-11 23:00:00 -3.8 5 Sudeste 6 Sudeste 0 -- -- 99
2020-01-11 22:00:00 -3.5 4 Sudeste 7 Sudeste 0 -- -- 99
2020-01-11 21:00:00 -3.2 5 Sudeste 6 Sudeste 0 -- -- 99
2020-01-11 20:00:00 -2.6 3 Sudeste 5 Sudeste 0 -- -- 98
2020-01-11 19:00:00 -1.4 2 Sudeste 5 Sudeste 0 -- -- 97
2020-01-11 18:00:00 0.8 4 Sudeste 10 Oeste 0 -- -- 92
2020-01-11 17:00:00 3.5 8 Oeste 22 Noroeste 0 -- -- 85
2020-01-11 16:00:00 5.2 17 Oeste 23 Noroeste 0 -- -- 79
2020-01-11 15:00:00 5.3 19 Noroeste 29 Oeste 0 -- -- 84
2020-01-11 14:00:00 4.4 18 Oeste 31 Oeste 0 -- -- 86
2020-01-11 13:00:00 3.7 21 Oeste 36 Oeste 0 -- -- 91
2020-01-11 12:00:00 3 24 Noroeste 34 Oeste 0 -- -- 97
2020-01-11 11:00:00 1.9 20 Noroeste 30 Noroeste 0 -- -- 100
2020-01-11 10:00:00 1.3 19 Noroeste 28 Noroeste 0 -- -- 100
2020-01-11 09:00:00 1.4 17 Noroeste 31 Noroeste 0 -- -- 100
2020-01-11 08:00:00 1.6 19 Noroeste 29 Noroeste 0 -- -- 100
2020-01-11 07:00:00 2 19 Noroeste 27 Noroeste 0 -- -- 100
2020-01-11 06:00:00 2.2 17 Noroeste 23 Noroeste 0 -- -- 100
2020-01-11 05:00:00 2.4 12 Noroeste 17 Oeste 0 -- -- 100
2020-01-11 04:00:00 2.6 10 Noroeste 19 Noroeste 0 -- -- 100
2020-01-11 03:00:00 2.8 14 Noroeste 24 Noroeste 0 -- -- 100
2020-01-11 02:00:00 2.9 13 Noroeste 23 Noroeste 0.2 -- -- 100
2020-01-11 01:00:00 2.8 8 Noroeste 19 Noroeste 0 -- -- 100
2020-01-11 00:00:00 2.4 14 Noroeste 18 Noroeste 0 -- -- 100
2020-01-10 23:00:00 2.4 8 Noroeste 15 Noroeste 0 -- -- 100
2020-01-10 22:00:00 1.9 8 Noroeste 15 Noroeste 0 -- -- 100
2020-01-10 21:00:00 2.2 9 Noroeste 17 Noroeste 0 -- -- 100
2020-01-10 20:00:00 2.6 14 Noroeste 17 Noroeste 0 -- -- 100
2020-01-10 19:00:00 2.6 8 Noroeste 13 Noroeste 0 -- -- 100
2020-01-10 18:00:00 3.7 7 Noroeste 22 Noroeste 0 -- -- 100
2020-01-10 17:00:00 4 18 Noroeste 27 Oeste 0 -- -- 100
2020-01-10 16:00:00 4 17 Noroeste 24 Noroeste 0 -- -- 100
2020-01-10 15:00:00 4 17 Noroeste 23 Noroeste 0 -- -- 100
2020-01-10 14:00:00 4.4 12 Noroeste 17 Oeste 0 -- -- 100
2020-01-10 13:00:00 4.6 12 Noroeste 15 Noroeste 0 -- -- 100
2020-01-10 12:00:00 3.8 4 Noroeste 8 Oeste 0 -- -- 100
2020-01-10 11:00:00 3 6 Noroeste 9 Oeste 0 -- -- 100
2020-01-10 10:00:00 2.5 3 Sudoeste 11 Noroeste 0 -- -- 100
2020-01-10 09:00:00 2.2 9 Noroeste 17 Noroeste 0 -- -- 100
2020-01-10 08:00:00 2.3 15 Noroeste 21 Noroeste 0 -- -- 100
2020-01-10 07:00:00 2.4 10 Noroeste 19 Oeste 0.4 -- -- 100
2020-01-10 06:00:00 2.7 11 Noroeste 26 Oeste 0.2 -- -- 100
2020-01-10 05:00:00 4 7 Noroeste 10 Oeste 0 -- -- 100
2020-01-10 04:00:00 4 8 Noroeste 11 Noroeste 0 -- -- 100
2020-01-10 03:00:00 3.8 3 Noroeste 6 Oeste 0 -- -- 100
2020-01-10 02:00:00 3.7 0 Calma 7 Norte 0 -- -- 100
2020-01-10 01:00:00 4.3 0 Calma 8 Este 0 -- -- 99
2020-01-10 00:00:00 4.3 2 Sudeste 9 Este 0 -- -- 98
2020-01-09 23:00:00 4.2 2 Este 6 Oeste 0 -- -- 95
2020-01-09 22:00:00 5.3 2 Sudeste 20 Este 0 -- -- 93
2020-01-09 21:00:00 3.5 10 Sudeste 15 Este 0 -- -- 97
2020-01-09 20:00:00 2.6 6 Sudeste 8 Sudeste 0 -- -- 96
2020-01-09 19:00:00 5.2 0 Calma 16 Sudeste 0 -- -- 91
2020-01-09 18:00:00 7.1 9 Este 13 Sudeste 0 -- -- 88
2020-01-09 17:00:00 8.5 7 Sur 17 Sudoeste 0 -- -- 78
2020-01-09 16:00:00 11.1 8 Sudoeste 16 Sur 0 -- -- 71
2020-01-09 15:00:00 11.4 8 Sur 16 Sur 0 -- -- 70
2020-01-09 14:00:00 11.8 8 Sudoeste 17 Sudeste 0 -- -- 59
2020-01-09 13:00:00 11.5 9 Sur 17 Sudoeste 0 -- -- 62
2020-01-09 12:00:00 10.9 12 Sur 21 Sur 0 -- -- 60
2020-01-09 11:00:00 7.3 6 Sudeste 9 Sudeste 0.2 -- -- 100
2020-01-09 10:00:00 0.6 7 Sudeste 9 Sudeste 0 -- -- 100
2020-01-09 09:00:00 -1.8 5 Sudeste 9 Sudeste 0 -- -- 100
2020-01-09 08:00:00 -2.6 6 Sudeste 9 Sudeste 0 -- -- 100
2020-01-09 07:00:00 -2.6 6 Sudeste 8 Sudeste 0 -- -- 100
2020-01-09 06:00:00 -2.4 5 Sudeste 8 Sudeste 0 -- -- 100
2020-01-09 05:00:00 -2.1 5 Sudeste 9 Sudeste 0 -- -- 100
2020-01-09 04:00:00 -1.8 5 Sudeste 8 Sudeste 0 -- -- 100
2020-01-09 03:00:00 -1.5 6 Sudeste 8 Sudeste 0 -- -- 100
2020-01-09 02:00:00 -1.3 6 Sudeste 9 Sudeste 0 -- -- 100
2020-01-09 01:00:00 -1.1 4 Sudeste 10 Sudeste 0 -- -- 100
2020-01-09 00:00:00 -0.7 5 Sudeste 9 Sudeste 0 -- -- 100
2020-01-08 23:00:00 -0.6 5 Sudeste 9 Sudeste 0 -- -- 100
2020-01-08 22:00:00 0.1 5 Sudeste 11 Sudeste 0 -- -- 100
2020-01-08 21:00:00 0.4 6 Sudeste 10 Sudeste 0 -- -- 100
2020-01-08 20:00:00 2 4 Sudeste 10 Sudeste 0 -- -- 99
2020-01-08 19:00:00 3 6 Sudeste 7 Sudeste 0 -- -- 96
2020-01-08 18:00:00 5.9 0 Calma 5 Norte 0 -- -- 90
2020-01-08 17:00:00 9.1 4 Noroeste 10 Norte 0 -- -- 82
2020-01-08 16:00:00 12 5 Norte 16 Oeste 0 -- -- 74
2020-01-08 15:00:00 12.6 12 Oeste 17 Oeste 0 -- -- 73
2020-01-08 14:00:00 13 7 Sur 17 Oeste 0 -- -- 60
2020-01-08 13:00:00 12.2 9 Sudoeste 17 Sudeste 0 -- -- 66
2020-01-08 12:00:00 10.8 10 Sudeste 24 Sudeste 0 -- -- 77
2020-01-08 11:00:00 8.7 13 Sudeste 20 Sudeste 0 -- -- 100
2020-01-08 10:00:00 3.1 12 Sudeste 18 Sudeste 0.2 -- -- 100
2020-01-08 09:00:00 -1.4 7 Sudeste 12 Sudeste 0 -- -- 100
2020-01-08 08:00:00 -2.7 9 Sudeste 14 Sudeste 0 -- -- 100
2020-01-08 07:00:00 -2.6 8 Sudeste 13 Sudeste 0 -- -- 100
2020-01-08 06:00:00 -2.9 6 Sudeste 10 Sudeste 0 -- -- 100
2020-01-08 05:00:00 -3.3 7 Sudeste 9 Sudeste 0 -- -- 100
2020-01-08 04:00:00 -3.4 5 Sudeste 9 Sudeste 0 -- -- 100
2020-01-08 03:00:00 -3.5 4 Sudeste 8 Sudeste 0 -- -- 100
2020-01-08 02:00:00 -3.6 5 Sudeste 7 Sudeste 0 -- -- 100
2020-01-08 01:00:00 -3.3 2 Sudeste 6 Sudeste 0 -- -- 100
2020-01-08 00:00:00 -2.9 4 Sudeste 6 Sudeste 0 -- -- 100
2020-01-07 23:00:00 -2.4 3 Este 8 Sudeste 0 -- -- 100
2020-01-07 22:00:00 -2 5 Sudeste 7 Sudeste 0 -- -- 100
2020-01-07 21:00:00 -1.1 3 Sudeste 10 Este 0 -- -- 100
2020-01-07 20:00:00 -0.6 5 Sudeste 11 Sudeste 0 -- -- 100
2020-01-07 19:00:00 -0.3 0 Calma 10 Noroeste 0 -- -- 100
2020-01-07 18:00:00 0.5 7 Noroeste 10 Noroeste 0 -- -- 100
2020-01-07 17:00:00 0.9 3 Norte 14 Oeste 0 -- -- 100
2020-01-07 16:00:00 1.3 12 Oeste 16 Oeste 0 -- -- 100
2020-01-07 15:00:00 1.2 9 Oeste 18 Oeste 0 -- -- 100
2020-01-07 14:00:00 0.7 11 Oeste 15 Oeste 0 -- -- 100
2020-01-07 13:00:00 0 11 Oeste 16 Noroeste 0 -- -- 100
2020-01-07 12:00:00 -0.3 9 Noroeste 15 Oeste 0 -- -- 100
2020-01-07 11:00:00 -0.7 11 Oeste 15 Oeste 0 -- -- 100
2020-01-07 10:00:00 -1.2 8 Noroeste 17 Noroeste 0 -- -- 100
2020-01-07 09:00:00 -1.9 9 Noroeste 15 Noroeste 0 -- -- 100
2020-01-07 08:00:00 -1.8 3 Norte 12 Noroeste 0 -- -- 100
2020-01-07 07:00:00 -1.6 9 Noroeste 14 Noroeste 0 -- -- 100
2020-01-07 06:00:00 -1.9 7 Noroeste 11 Noroeste 0 -- -- 100
2020-01-07 05:00:00 -1.7 2 Norte 8 Noroeste 0 -- -- 100
2020-01-07 04:00:00 -1.8 2 Oeste 10 Sudeste 0 -- -- 100
2020-01-07 03:00:00 -0.9 4 Noroeste 13 Noroeste 0 -- -- 100
2020-01-07 02:00:00 -1 6 Noroeste 20 Noroeste 0 -- -- 100
2020-01-07 01:00:00 -1.3 0 Calma 9 Sudeste 0 -- -- 100
2020-01-07 00:00:00 -0.8 2 Nordeste 15 Noroeste 0 -- -- 100
2020-01-06 23:00:00 -0.5 0 Calma 10 Noroeste 0 -- -- 100
2020-01-06 22:00:00 -1.5 3 Noroeste 8 Noroeste 0 -- -- 100
2020-01-06 21:00:00 -1.8 4 Sudeste 5 Sudeste 0 -- -- 100
2020-01-06 20:00:00 -1.1 3 Sudeste 5 Este 0 -- -- 99
2020-01-06 19:00:00 0.4 3 Este 5 Sudeste 0 -- -- 96
2020-01-06 18:00:00 3.1 0 Calma 9 Noroeste 0 -- -- 90
2020-01-06 17:00:00 6.4 7 Noroeste 12 Noroeste 0 -- -- 78
2020-01-06 16:00:00 9.4 10 Noroeste 16 Oeste 0 -- -- 76
2020-01-06 15:00:00 11.1 9 Oeste 13 Oeste 0 -- -- 65
2020-01-06 14:00:00 11.3 8 Oeste 12 Oeste 0 -- -- 59
2020-01-06 13:00:00 9.8 9 Oeste 12 Oeste 0 -- -- 100
2020-01-06 12:00:00 8.4 5 Oeste 8 Oeste 0 -- -- 100
2020-01-06 11:00:00 5.9 3 Sudeste 8 Sudeste 0 -- -- 100
2020-01-06 10:00:00 1.5 5 Sudeste 8 Sudeste 0 -- -- 100